Time;durP1;ratioP1;P1;durP2;ratioP2;P2;SDS_P1;SDS_P2;PMS_P1;PMS_P2;Temp;Humidity;BMP_temperature;BMP_pressure;BME280_temperature;BME280_humidity;BME280_pressure;Samples;Min_cycle;Max_cycle;Signal;HPM_P1;HPM_P2
2022/04/29 00:00:42;;;;;;;17.02;10.63;;;;;;;17.19;70.21;101157.53;5018895;28;20056;-81
2022/04/29 00:03:09;;;;;;;14.32;9.88;;;;;;;17.14;69.95;101159.88;5018494;28;20052;-81
2022/04/29 00:05:36;;;;;;;19.45;11.10;;;;;;;17.09;70.45;101161.34;5018512;28;20480;-81
2022/04/29 00:08:05;;;;;;;18.33;10.57;;;;;;;17.14;70.29;101153.59;5018746;28;20495;-80
2022/04/29 00:10:31;;;;;;;20.33;10.73;;;;;;;17.23;69.99;101169.84;5018701;28;20025;-81
2022/04/29 00:12:57;;;;;;;13.23;10.20;;;;;;;17.22;69.88;101162.66;5018828;28;20022;-81
2022/04/29 00:15:22;;;;;;;13.88;9.75;;;;;;;17.15;70.27;101177.91;5018337;28;20052;-79
2022/04/29 00:17:48;;;;;;;13.75;10.45;;;;;;;17.11;70.18;101173.78;5018753;28;20053;-80
2022/04/29 00:20:15;;;;;;;15.07;10.27;;;;;;;17.10;70.34;101168.47;5018461;28;20044;-80
2022/04/29 00:22:41;;;;;;;20.42;11.63;;;;;;;17.06;70.55;101167.97;5017138;28;20087;-81
2022/04/29 00:25:08;;;;;;;21.58;12.30;;;;;;;17.07;70.66;101166.06;5018472;28;20025;-82
2022/04/29 00:27:34;;;;;;;21.10;11.52;;;;;;;17.03;70.79;101161.97;5018974;28;20026;-80
2022/04/29 00:30:00;;;;;;;15.02;10.82;;;;;;;17.11;70.35;101157.47;5018606;28;20167;-80
2022/04/29 00:32:25;;;;;;;14.88;10.23;;;;;;;17.10;70.28;101158.47;5018651;28;20575;-82
2022/04/29 00:34:51;;;;;;;17.17;10.13;;;;;;;17.20;70.30;101161.13;5018698;28;20030;-81
2022/04/29 00:37:17;;;;;;;16.40;9.85;;;;;;;17.22;69.94;101157.22;4988309;28;20078;-81
2022/04/29 00:39:43;;;;;;;14.40;10.38;;;;;;;17.13;69.96;101151.88;4992044;28;20027;-80
2022/04/29 00:42:21;;;;;;;13.60;10.55;;;;;;;17.06;70.45;101159.81;4997085;28;20110;-81
2022/04/29 00:44:47;;;;;;;15.70;11.02;;;;;;;17.07;70.66;101157.91;4980591;28;20040;-81
2022/04/29 00:47:16;;;;;;;12.90;10.30;;;;;;;17.09;70.59;101154.06;4979156;28;20101;-81
2022/04/29 00:49:42;;;;;;;18.20;10.60;;;;;;;17.16;70.59;101157.84;4979017;28;20469;-81
2022/04/29 00:52:13;;;;;;;20.00;10.68;;;;;;;17.23;70.34;101148.09;4978994;28;20027;-81
2022/04/29 00:54:41;;;;;;;14.68;9.77;;;;;;;17.29;70.32;101150.19;4978965;28;20077;-81
2022/04/29 00:57:15;;;;;;;16.50;10.50;;;;;;;17.31;70.11;101150.88;4978834;28;20023;-81
2022/04/29 01:00:01;;;;;;;15.63;10.38;;;;;;;17.31;70.10;101150.88;4975214;28;20087;-81
2022/04/29 01:02:28;;;;;;;18.58;9.75;;;;;;;17.23;70.10;101145.38;4975652;28;20027;-81
2022/04/29 01:05:01;;;;;;;13.63;9.68;;;;;;;17.25;69.74;101140.63;4976090;28;20050;-80
2022/04/29 01:07:28;;;;;;;12.30;10.07;;;;;;;17.19;70.07;101148.53;4975933;28;20466;-81
2022/04/29 01:09:54;;;;;;;12.82;9.82;;;;;;;17.17;69.85;101132.38;4975704;28;20027;-80
2022/04/29 01:12:20;;;;;;;12.85;10.25;;;;;;;17.27;69.96;101135.91;4975764;28;20433;-79
2022/04/29 01:14:45;;;;;;;13.70;9.90;;;;;;;17.37;69.47;101136.66;4975358;28;20054;-81
2022/04/29 01:17:11;;;;;;;15.68;9.63;;;;;;;17.38;69.20;101129.34;4975605;28;20097;-81
2022/04/29 01:19:40;;;;;;;13.82;10.02;;;;;;;17.33;69.42;101143.44;4975460;28;20165;-80
2022/04/29 01:22:05;;;;;;;13.57;9.00;;;;;;;17.38;69.15;101141.09;4975498;28;20034;-80
2022/04/29 01:24:31;;;;;;;17.27;10.63;;;;;;;17.35;69.29;101135.97;4975803;28;20097;-80
2022/04/29 01:26:56;;;;;;;15.40;9.43;;;;;;;17.34;68.99;101134.25;4975671;28;20037;-80
2022/04/29 01:29:24;;;;;;;16.58;10.00;;;;;;;17.26;69.51;101130.59;4975258;28;20498;-82
2022/04/29 01:31:52;;;;;;;15.88;10.27;;;;;;;17.19;69.47;101118.63;4974258;28;20078;-82
2022/04/29 01:34:17;;;;;;;16.42;8.88;;;;;;;17.24;69.49;101133.50;4975281;28;20062;-82
2022/04/29 01:36:43;;;;;;;15.13;9.30;;;;;;;17.28;69.40;101139.44;4975275;28;20492;-82
2022/04/29 01:39:08;;;;;;;12.10;10.07;;;;;;;17.27;69.50;101143.19;4975129;28;20030;-81
2022/04/29 01:41:34;;;;;;;19.10;10.40;;;;;;;17.26;69.67;101147.78;4975065;28;20030;-80
2022/04/29 01:44:00;;;;;;;14.55;10.57;;;;;;;17.34;69.69;101145.13;4975423;28;20045;-81
2022/04/29 01:46:25;;;;;;;12.95;10.02;;;;;;;17.36;69.55;101137.69;4975553;28;20034;-81
2022/04/29 01:48:51;;;;;;;15.88;10.77;;;;;;;17.36;69.81;101144.97;4975297;28;20035;-80
2022/04/29 01:51:16;;;;;;;22.05;9.48;;;;;;;17.40;69.68;101133.63;4974999;28;20029;-80
2022/04/29 01:53:42;;;;;;;14.50;9.82;;;;;;;17.39;69.73;101131.94;4974701;28;20094;-81
2022/04/29 01:56:07;;;;;;;16.48;10.00;;;;;;;17.42;69.55;101123.47;4974771;28;20027;-82
2022/04/29 01:58:33;;;;;;;11.27;9.40;;;;;;;17.39;69.94;101133.78;4974720;28;20107;-80
2022/04/29 02:00:59;;;;;;;12.85;10.20;;;;;;;17.34;69.99;101126.09;4974919;28;20022;-80
2022/04/29 02:03:24;;;;;;;16.15;10.07;;;;;;;17.40;70.23;101128.19;4974729;28;20023;-81
2022/04/29 02:05:50;;;;;;;12.90;10.93;;;;;;;17.30;70.70;101115.69;4974992;28;20395;-83
2022/04/29 02:08:16;;;;;;;16.77;11.40;;;;;;;17.18;70.95;101125.97;4976224;28;20025;-82
2022/04/29 02:10:42;;;;;;;14.50;11.57;;;;;;;17.08;71.73;101118.88;4975365;28;20027;-82
2022/04/29 02:13:08;;;;;;;13.20;10.93;;;;;;;16.98;72.52;101110.78;4976282;28;20046;-81
2022/04/29 02:15:34;;;;;;;18.17;11.20;;;;;;;16.99;72.43;101120.66;4976425;28;20564;-81
2022/04/29 02:18:00;;;;;;;14.30;10.32;;;;;;;16.99;72.91;101115.22;4983612;28;20046;-81
2022/04/29 02:20:25;;;;;;;25.10;11.35;;;;;;;17.06;72.33;101112.75;4993142;28;20505;-80
2022/04/29 02:22:52;;;;;;;17.65;12.30;;;;;;;17.03;72.72;101097.56;4976419;28;20034;-81
2022/04/29 02:25:18;;;;;;;13.45;10.50;;;;;;;17.07;72.60;101109.84;4974497;28;20027;-80
2022/04/29 02:27:44;;;;;;;19.20;10.75;;;;;;;17.08;71.99;101117.00;4974306;28;20042;-81
2022/04/29 02:30:10;;;;;;;14.52;9.27;;;;;;;17.11;71.93;101127.56;4974445;28;20035;-82
2022/04/29 02:32:36;;;;;;;28.08;11.68;;;;;;;17.12;71.87;101129.28;4974052;28;20026;-80
2022/04/29 02:35:01;;;;;;;15.30;10.55;;;;;;;17.12;72.15;101136.59;4974131;28;20460;-81
2022/04/29 02:37:27;;;;;;;11.20;9.15;;;;;;;17.10;72.06;101135.88;4974237;28;20087;-81
2022/04/29 02:39:53;;;;;;;19.48;10.45;;;;;;;17.09;72.16;101140.47;4974620;28;20026;-82
2022/04/29 02:42:19;;;;;;;11.68;9.27;;;;;;;17.11;72.23;101138.44;4974011;28;20035;-81
2022/04/29 02:44:44;;;;;;;13.27;9.35;;;;;;;17.00;72.84;101141.38;4972834;28;20667;-82
2022/04/29 02:47:10;;;;;;;13.85;9.35;;;;;;;17.06;72.60;101145.34;4974278;28;20432;-81
2022/04/29 02:49:41;;;;;;;10.48;8.07;;;;;;;17.05;72.76;101138.19;4973939;28;20030;-80
2022/04/29 02:52:10;;;;;;;12.10;7.87;;;;;;;17.09;72.47;101135.03;4973761;28;20038;-81
2022/04/29 02:54:37;;;;;;;11.50;7.78;;;;;;;17.12;71.95;101126.56;4974207;28;20034;-81
2022/04/29 02:57:03;;;;;;;10.73;7.88;;;;;;;17.03;71.71;101122.03;4974151;28;20035;-80
2022/04/29 02:59:28;;;;;;;18.05;7.18;;;;;;;17.05;71.73;101125.47;4972783;28;20183;-81
2022/04/29 03:01:53;;;;;;;8.90;7.13;;;;;;;17.05;71.86;101125.47;4973795;28;20030;-81
2022/04/29 03:04:19;;;;;;;19.65;8.10;;;;;;;17.03;71.63;101119.31;4973900;28;20153;-81
2022/04/29 03:06:45;;;;;;;9.43;7.93;;;;;;;17.09;71.55;101135.03;4974050;28;20022;-81
2022/04/29 03:09:11;;;;;;;13.25;8.23;;;;;;;17.02;71.86;101128.50;4973823;28;20146;-82
2022/04/29 03:11:37;;;;;;;20.40;8.18;;;;;;;17.02;71.61;101133.94;4973527;28;20033;-81
2022/04/29 03:14:02;;;;;;;10.57;7.30;;;;;;;16.92;71.96;101135.00;4973649;28;20026;-81
2022/04/29 03:16:28;;;;;;;12.55;8.27;;;;;;;16.96;72.09;101133.69;4973663;28;20031;-82
2022/04/29 03:18:53;;;;;;;14.80;9.40;;;;;;;16.96;71.81;101144.56;4972154;28;20031;-79
2022/04/29 03:21:20;;;;;;;10.15;7.78;;;;;;;16.91;71.95;101142.28;4973116;28;20101;-79
2022/04/29 03:23:49;;;;;;;12.75;7.70;;;;;;;16.88;71.85;101137.16;4973316;28;20110;-82
2022/04/29 03:26:14;;;;;;;18.80;8.60;;;;;;;16.81;72.09;101145.09;4973501;28;20051;-82
2022/04/29 03:28:40;;;;;;;18.25;8.63;;;;;;;16.80;71.98;101137.06;4973663;28;20034;-79
2022/04/29 03:31:05;;;;;;;15.23;9.15;;;;;;;16.83;72.23;101147.63;4973330;28;20405;-79
2022/04/29 03:33:31;;;;;;;13.98;8.07;;;;;;;16.91;72.04;101144.19;4973174;28;20374;-79
2022/04/29 03:35:57;;;;;;;15.10;8.82;;;;;;;16.90;71.77;101143.31;4975968;28;20022;-78
2022/04/29 03:38:26;;;;;;;15.38;8.38;;;;;;;16.95;71.45;101154.56;4990602;28;20412;-79
2022/04/29 03:40:53;;;;;;;12.43;8.25;;;;;;;16.88;71.62;101148.03;4992057;28;20049;-78
2022/04/29 03:43:18;;;;;;;11.63;8.30;;;;;;;16.89;71.58;101171.47;4990608;28;20031;-79
2022/04/29 03:45:44;;;;;;;14.77;8.88;;;;;;;16.86;71.58;101172.66;4992612;28;20453;-79
2022/04/29 03:48:10;;;;;;;10.85;8.00;;;;;;;16.85;71.71;101167.34;4991210;28;20146;-80
2022/04/29 03:50:36;;;;;;;13.55;9.40;;;;;;;16.89;71.59;101166.03;4993113;28;20038;-80
2022/04/29 03:53:03;;;;;;;13.35;8.88;;;;;;;16.91;71.32;101164.03;5001699;28;20033;-78
2022/04/29 03:55:31;;;;;;;17.38;9.10;;;;;;;16.84;71.49;101168.38;4999986;28;20030;-80
2022/04/29 03:57:58;;;;;;;24.48;10.80;;;;;;;16.79;71.39;101162.53;5008147;28;20030;-81
2022/04/29 04:00:25;;;;;;;16.92;10.75;;;;;;;16.73;71.76;101161.28;4992849;28;20038;-79
2022/04/29 04:02:51;;;;;;;14.85;9.70;;;;;;;16.86;70.74;101163.63;4977040;28;20046;-80
2022/04/29 04:05:17;;;;;;;47.95;13.50;;;;;;;16.89;70.50;101160.63;4992395;28;20030;-83
2022/04/29 04:07:45;;;;;;;41.13;12.38;;;;;;;16.92;70.47;101159.44;4993576;28;20463;-78
2022/04/29 04:10:13;;;;;;;16.35;10.43;;;;;;;16.98;69.86;101170.56;4997104;28;20146;-79
2022/04/29 04:12:48;;;;;;;17.35;10.77;;;;;;;17.00;69.11;101176.69;4992139;28;20101;-78
2022/04/29 04:15:15;;;;;;;17.60;11.55;;;;;;;16.90;68.78;101170.50;4991667;28;20117;-78
2022/04/29 04:17:41;;;;;;;22.38;11.48;;;;;;;16.83;68.99;101161.22;4991711;28;20038;-77
2022/04/29 04:20:10;;;;;;;19.30;12.40;;;;;;;16.82;68.65;101151.34;4991115;28;20054;-78
2022/04/29 04:22:36;;;;;;;24.92;11.82;;;;;;;16.88;68.56;101175.19;4991990;28;20125;-80
2022/04/29 04:25:06;;;;;;;16.33;12.55;;;;;;;16.81;68.28;101165.97;5008303;28;20026;-87
2022/04/29 04:27:32;;;;;;;32.60;14.40;;;;;;;16.75;68.12;101158.44;5002698;28;20500;-83
2022/04/29 04:29:58;;;;;;;21.10;13.20;;;;;;;16.85;68.14;101180.94;4992771;28;20025;-85
2022/04/29 04:32:24;;;;;;;20.08;12.05;;;;;;;16.77;68.00;101172.69;4992295;28;20050;-83
2022/04/29 04:34:53;;;;;;;19.80;12.15;;;;;;;16.79;68.38;101170.69;5001416;28;20034;-85
2022/04/29 04:37:23;;;;;;;17.75;11.43;;;;;;;16.88;68.42;101192.38;5012311;28;20022;-81
2022/04/29 04:39:50;;;;;;;17.58;11.80;;;;;;;16.93;68.18;101189.22;5008990;28;20092;-81
2022/04/29 04:42:16;;;;;;;25.20;11.77;;;;;;;16.94;68.33;101201.75;4993796;28;20037;-81
2022/04/29 04:44:42;;;;;;;20.42;12.02;;;;;;;16.92;67.81;101202.94;4995867;28;20481;-81
2022/04/29 04:47:09;;;;;;;18.13;11.90;;;;;;;16.98;67.74;101203.19;4995729;28;20099;-82
2022/04/29 04:49:35;;;;;;;23.83;13.70;;;;;;;16.94;66.75;101185.47;4988986;28;20504;-81
2022/04/29 04:52:01;;;;;;;46.33;15.85;;;;;;;16.98;67.04;101189.59;4995630;28;20065;-82
2022/04/29 04:54:27;;;;;;;22.42;13.35;;;;;;;17.06;67.08;101195.13;4994899;28;20024;-83
2022/04/29 04:56:52;;;;;;;64.65;16.70;;;;;;;17.10;66.77;101196.53;4995472;28;20477;-82
2022/04/29 04:59:18;;;;;;;21.02;13.73;;;;;;;17.20;66.77;101202.75;4995997;28;20026;-82
2022/04/29 05:01:44;;;;;;;22.52;13.18;;;;;;;17.31;66.42;101199.81;4995811;28;20061;-81
2022/04/29 05:04:09;;;;;;;24.83;14.27;;;;;;;17.40;66.40;101195.31;4997091;28;20054;-82
2022/04/29 05:06:38;;;;;;;50.75;14.52;;;;;;;17.50;66.34;101200.66;4995320;28;20023;-81
2022/04/29 05:09:04;;;;;;;38.83;13.60;;;;;;;17.60;65.88;101204.22;4995333;28;20522;-82
2022/04/29 05:11:30;;;;;;;28.35;12.75;;;;;;;17.66;64.79;101188.13;4995220;28;20101;-82
2022/04/29 05:13:57;;;;;;;19.90;12.02;;;;;;;17.75;64.11;101221.69;4993600;28;20085;-81
2022/04/29 05:16:23;;;;;;;31.95;13.25;;;;;;;17.70;64.18;101213.16;4995338;28;20077;-81
2022/04/29 05:18:48;;;;;;;33.63;12.50;;;;;;;17.66;64.18;101198.13;4994669;28;20018;-82
2022/04/29 05:21:14;;;;;;;36.22;13.00;;;;;;;17.78;64.60;101211.34;4994976;28;20460;-81
2022/04/29 05:23:41;;;;;;;87.50;16.77;;;;;;;17.86;64.42;101216.84;4994887;28;20050;-81
2022/04/29 05:26:06;;;;;;;20.10;11.38;;;;;;;17.90;64.05;101220.13;4995661;28;20468;-82
2022/04/29 05:28:32;;;;;;;15.75;11.25;;;;;;;17.93;64.29;101217.06;4994938;28;20022;-82
2022/04/29 05:30:59;;;;;;;29.67;12.50;;;;;;;17.93;64.11;101217.94;4995329;28;20022;-82
2022/04/29 05:33:26;;;;;;;23.58;10.75;;;;;;;17.95;64.25;101225.94;4995846;28;20022;-82
2022/04/29 05:35:52;;;;;;;67.25;13.20;;;;;;;17.97;64.53;101231.22;4998297;28;20130;-82
2022/04/29 05:38:18;;;;;;;24.83;13.05;;;;;;;17.98;64.57;101224.78;5015064;28;20053;-82
2022/04/29 05:43:28;;;;;;;27.63;13.45;;;;;;;18.01;63.89;101230.75;4983746;28;20038;-81
2022/04/29 05:45:54;;;;;;;30.05;17.35;;;;;;;17.96;64.03;101233.09;4989377;28;20030;-80
2022/04/29 05:48:20;;;;;;;27.02;14.20;;;;;;;17.95;63.26;101228.66;4994758;28;20109;-82
2022/04/29 05:50:46;;;;;;;28.48;13.30;;;;;;;17.96;63.38;101230.38;4994596;28;20034;-83
2022/04/29 05:53:12;;;;;;;18.60;13.75;;;;;;;17.97;63.10;101234.81;4994499;28;20038;-81
2022/04/29 05:55:37;;;;;;;31.35;14.05;;;;;;;18.00;62.92;101228.19;4994451;28;20464;-81
2022/04/29 05:58:03;;;;;;;35.63;14.23;;;;;;;18.00;63.24;101236.34;4994343;28;20034;-81
2022/04/29 06:00:28;;;;;;;26.30;14.23;;;;;;;17.96;63.46;101238.53;4993791;28;20022;-83
2022/04/29 06:02:53;;;;;;;27.42;14.10;;;;;;;18.07;62.90;101243.72;4994095;28;20031;-83
2022/04/29 06:05:19;;;;;;;18.65;12.82;;;;;;;18.07;62.52;101246.44;4997925;28;20085;-81
2022/04/29 06:07:45;;;;;;;22.05;12.15;;;;;;;18.10;61.87;101245.28;4994184;28;20050;-80
2022/04/29 06:10:10;;;;;;;18.90;11.85;;;;;;;18.09;62.11;101244.44;4994496;28;20447;-81
2022/04/29 06:12:40;;;;;;;30.85;12.90;;;;;;;18.18;62.32;101243.47;4992552;28;20113;-81
2022/04/29 06:15:06;;;;;;;27.80;13.73;;;;;;;18.23;61.47;101235.69;4993983;28;20488;-81
2022/04/29 06:17:31;;;;;;;27.95;12.57;;;;;;;18.33;60.96;101241.88;4993708;28;20062;-81
2022/04/29 06:19:57;;;;;;;17.10;12.82;;;;;;;18.38;60.26;101239.53;4991840;28;20108;-81
2022/04/29 06:22:23;;;;;;;20.20;12.50;;;;;;;18.46;60.37;101238.75;4993509;28;20158;-81
2022/04/29 06:24:50;;;;;;;18.67;12.30;;;;;;;18.48;59.66;101248.47;4993749;28;20108;-81
2022/04/29 06:27:20;;;;;;;14.60;11.75;;;;;;;18.50;59.76;101233.88;4997320;28;20029;-82
2022/04/29 06:29:45;;;;;;;38.70;13.95;;;;;;;18.58;59.69;101247.53;5003573;28;20026;-82
2022/04/29 06:32:10;;;;;;;16.35;12.18;;;;;;;18.63;59.27;101250.59;4993417;28;20044;-83
2022/04/29 06:34:37;;;;;;;19.50;11.80;;;;;;;18.61;59.48;101233.56;4993642;28;20019;-82
2022/04/29 06:37:03;;;;;;;24.88;12.07;;;;;;;18.64;59.40;101235.97;4994017;28;20429;-82
2022/04/29 06:39:29;;;;;;;12.13;10.38;;;;;;;18.74;59.41;101244.91;4993369;28;20029;-82
2022/04/29 06:41:54;;;;;;;30.17;11.48;;;;;;;18.82;59.68;101250.38;4993115;28;20018;-82
2022/04/29 06:44:19;;;;;;;23.83;13.27;;;;;;;18.90;59.47;101244.94;4993696;28;20049;-82
2022/04/29 06:46:45;;;;;;;51.92;16.35;;;;;;;18.97;59.64;101254.19;4993088;28;20018;-82
2022/04/29 06:49:10;;;;;;;15.68;12.02;;;;;;;19.11;58.46;101253.56;4992799;28;20097;-82
2022/04/29 06:51:43;;;;;;;18.67;12.35;;;;;;;19.25;58.78;101238.44;4992829;28;20452;-82
2022/04/29 06:54:08;;;;;;;32.03;12.85;;;;;;;19.40;57.35;101247.72;4993144;28;20021;-81
2022/04/29 06:56:34;;;;;;;21.27;11.55;;;;;;;19.48;57.26;101245.88;4992413;28;20038;-82
2022/04/29 06:58:59;;;;;;;25.83;10.65;;;;;;;19.54;56.62;101247.94;4992973;28;20018;-81
2022/04/29 07:01:25;;;;;;;13.02;10.43;;;;;;;19.62;56.14;101246.25;4988095;28;20030;-83
2022/04/29 07:03:51;;;;;;;15.38;11.55;;;;;;;19.67;55.88;101249.31;4973748;28;20085;-84
2022/04/29 07:06:16;;;;;;;12.60;10.43;;;;;;;19.75;55.85;101246.63;4973899;28;20034;-82
2022/04/29 07:08:42;;;;;;;16.42;10.93;;;;;;;19.76;55.70;101249.16;4992400;28;20015;-81
2022/04/29 07:11:07;;;;;;;26.67;10.88;;;;;;;19.75;55.57;101238.44;4992546;28;20019;-82
2022/04/29 07:13:33;;;;;;;17.02;10.77;;;;;;;19.73;55.65;101260.41;4992591;28;20073;-82
2022/04/29 07:15:58;;;;;;;16.88;11.48;;;;;;;19.77;56.03;101250.00;5000401;28;20025;-85
2022/04/29 07:18:24;;;;;;;13.93;10.30;;;;;;;19.86;56.50;101254.47;4996020;28;20603;-84
2022/04/29 07:20:49;;;;;;;18.55;9.50;;;;;;;19.92;56.57;101251.03;4991088;28;20054;-82
2022/04/29 07:23:15;;;;;;;22.38;11.13;;;;;;;20.01;55.40;101252.75;4992423;28;20416;-81
2022/04/29 07:25:41;;;;;;;17.23;10.38;;;;;;;20.02;54.93;101259.94;4990683;28;20030;-81
2022/04/29 07:28:07;;;;;;;18.92;11.70;;;;;;;19.95;54.19;101235.19;4991907;28;20070;-81
2022/04/29 07:30:33;;;;;;;16.02;10.48;;;;;;;20.01;54.14;101252.75;4992099;28;20022;-81
2022/04/29 07:32:58;;;;;;;15.48;10.60;;;;;;;19.93;53.83;101244.56;4991644;28;20046;-81
2022/04/29 07:43:36;;;;;;;9.77;7.25;;;;;;;20.22;52.33;101231.22;4991499;28;20096;-82
2022/04/29 07:46:03;;;;;;;8.75;6.65;;;;;;;20.29;51.79;101239.63;4991521;28;20022;-81
2022/04/29 07:48:29;;;;;;;9.25;7.35;;;;;;;20.40;51.73;101237.38;4991652;28;20018;-81
2022/04/29 07:50:54;;;;;;;16.20;9.57;;;;;;;20.45;51.26;101240.47;4991575;28;20038;-81
2022/04/29 07:53:20;;;;;;;12.52;7.05;;;;;;;20.53;51.13;101237.72;4991575;28;20077;-81
2022/04/29 07:55:46;;;;;;;10.30;7.18;;;;;;;20.57;50.64;101228.16;4993778;28;20108;-80
2022/04/29 07:58:12;;;;;;;11.80;7.28;;;;;;;20.67;51.16;101238.03;4990458;28;20065;-81
2022/04/29 08:00:38;;;;;;;9.57;7.38;;;;;;;20.75;50.80;101240.72;4991649;28;20030;-81
2022/04/29 08:03:05;;;;;;;13.20;7.72;;;;;;;20.80;51.00;101246.50;4991469;28;20030;-81
2022/04/29 08:05:31;;;;;;;11.73;7.45;;;;;;;20.87;51.59;101244.78;4991850;28;20085;-81
2022/04/29 08:07:59;;;;;;;16.48;10.43;;;;;;;20.92;50.66;101242.34;4992642;28;20022;-81
2022/04/29 08:10:35;;;;;;;12.38;8.30;;;;;;;21.03;50.04;101245.59;4995590;28;20046;-81
2022/04/29 08:13:03;;;;;;;9.63;7.68;;;;;;;21.10;50.55;101245.72;4998004;28;20061;-80
2022/04/29 08:15:30;;;;;;;18.58;8.27;;;;;;;21.21;49.12;101250.81;4995937;28;20341;-81
2022/04/29 08:17:57;;;;;;;17.17;7.45;;;;;;;21.22;48.17;101235.28;4995785;28;20467;-81
2022/04/29 08:20:23;;;;;;;12.73;6.95;;;;;;;21.21;48.12;101241.75;4995176;28;20050;-81
2022/04/29 08:22:49;;;;;;;25.40;16.98;;;;;;;21.27;46.83;101249.25;4995457;28;20464;-81
2022/04/29 08:25:17;;;;;;;11.43;6.15;;;;;;;21.29;46.56;101231.63;4995301;28;20474;-81
2022/04/29 08:27:43;;;;;;;9.52;6.22;;;;;;;21.39;46.22;101235.00;4993814;28;20404;-81
2022/04/29 08:30:08;;;;;;;15.60;7.78;;;;;;;21.50;48.10;101236.44;4995042;28;20027;-81
2022/04/29 08:32:38;;;;;;;10.57;8.40;;;;;;;21.60;48.19;101231.59;4994998;28;20026;-81
2022/04/29 08:35:04;;;;;;;9.90;7.47;;;;;;;21.68;47.43;101221.44;4995180;28;20033;-81
2022/04/29 08:37:30;;;;;;;18.67;8.07;;;;;;;21.75;47.21;101213.34;4995736;28;20033;-81
2022/04/29 08:39:55;;;;;;;19.08;7.82;;;;;;;21.90;47.94;101227.13;4993879;28;20015;-82
2022/04/29 08:42:27;;;;;;;11.48;7.40;;;;;;;21.90;46.70;101233.47;4996149;28;20026;-82
2022/04/29 08:44:53;;;;;;;19.30;10.68;;;;;;;21.96;47.04;101220.91;4996410;28;20109;-81
2022/04/29 08:47:18;;;;;;;15.82;8.88;;;;;;;21.96;47.19;101229.13;4994946;28;20034;-82
2022/04/29 08:49:46;;;;;;;119.13;16.05;;;;;;;22.03;47.26;101227.38;4993732;28;20165;-82
2022/04/29 08:52:14;;;;;;;17.05;8.10;;;;;;;22.08;47.31;101230.38;4995247;28;20023;-82
2022/04/29 09:00:13;;;;;;;11.10;7.32;;;;;;;22.31;44.84;101213.91;4994871;28;20085;-81
2022/04/29 09:02:39;;;;;;;12.70;8.02;;;;;;;22.43;45.31;101228.88;4994955;28;20092;-82
2022/04/29 09:05:10;;;;;;;30.42;8.80;;;;;;;22.42;45.55;101205.22;4995079;28;20101;-82
2022/04/29 09:07:55;;;;;;;9.60;7.72;;;;;;;22.46;44.50;101218.38;4994650;28;20403;-81
2022/04/29 09:10:22;;;;;;;10.52;7.60;;;;;;;22.43;45.36;101207.78;4994466;28;20452;-81
2022/04/29 09:12:48;;;;;;;20.13;8.73;;;;;;;22.68;45.95;101219.38;4994437;28;20046;-82
2022/04/29 09:15:15;;;;;;;24.40;8.52;;;;;;;22.86;45.31;101213.50;4994245;28;20455;-82
2022/04/29 09:17:46;;;;;;;12.43;8.60;;;;;;;22.88;44.38;101208.66;4994770;28;20050;-81
2022/04/29 09:20:20;;;;;;;17.13;8.57;;;;;;;22.90;44.70;101220.31;4993153;28;20059;-81
2022/04/29 09:22:48;;;;;;;20.27;8.30;;;;;;;22.77;44.23;101199.03;4994290;28;20033;-81
2022/04/29 09:25:14;;;;;;;11.15;8.50;;;;;;;22.87;44.68;101212.47;4994675;28;20018;-81
2022/04/29 09:27:59;;;;;;;18.63;9.23;;;;;;;22.86;45.20;101208.00;4994301;28;20054;-81
2022/04/29 09:30:41;;;;;;;23.55;9.90;;;;;;;22.74;45.40;101200.28;4994152;28;20033;-81
2022/04/29 09:33:17;;;;;;;17.45;7.88;;;;;;;22.69;45.17;101212.81;4994179;28;20496;-81
2022/04/29 09:35:43;;;;;;;10.52;7.32;;;;;;;22.70;44.81;101203.56;4993718;28;20377;-82
2022/04/29 09:41:00;;;;;;;12.75;8.68;;;;;;;22.75;46.04;101207.44;4994684;28;20145;-81
2022/04/29 09:43:47;;;;;;;8.60;6.95;;;;;;;22.85;45.00;101207.16;4994769;28;20073;-82
2022/04/29 09:46:20;;;;;;;8.43;7.18;;;;;;;22.73;45.00;101198.56;4995052;28;20526;-82
2022/04/29 09:49:17;;;;;;;15.10;7.18;;;;;;;22.68;44.89;101201.03;4996587;28;20473;-81
2022/04/29 09:51:46;;;;;;;10.50;7.28;;;;;;;22.75;44.57;101201.97;4992453;28;20034;-81
2022/04/29 09:54:26;;;;;;;10.18;7.75;;;;;;;22.80;42.83;101204.16;4994232;28;20117;-81
2022/04/29 09:57:07;;;;;;;12.95;6.40;;;;;;;22.86;41.68;101199.78;4994713;28;20030;-82
2022/04/29 09:59:47;;;;;;;18.00;5.63;;;;;;;23.01;41.28;101195.13;4994104;28;20105;-81
2022/04/29 10:02:17;;;;;;;15.73;6.00;;;;;;;22.97;43.27;101193.78;4993724;28;20022;-81
2022/04/29 10:04:45;;;;;;;12.98;6.45;;;;;;;22.94;43.64;101191.44;4993883;28;20026;-82
2022/04/29 10:07:16;;;;;;;11.27;7.30;;;;;;;22.95;43.51;101180.28;4993866;28;20056;-81
2022/04/29 10:09:47;;;;;;;14.60;7.70;;;;;;;23.07;42.95;101188.88;4992226;28;20037;-81
2022/04/29 10:12:18;;;;;;;14.80;6.38;;;;;;;22.94;43.22;101180.47;4993496;28;20101;-81
2022/04/29 10:14:46;;;;;;;10.07;5.28;;;;;;;23.00;41.52;101190.66;4992518;28;20459;-82
2022/04/29 10:22:58;;;;;;;16.25;5.85;;;;;;;23.41;40.65;101172.63;4994952;28;20053;-81
2022/04/29 10:25:26;;;;;;;14.50;5.88;;;;;;;23.57;39.81;101169.63;4994075;28;20068;-81
2022/04/29 10:27:52;;;;;;;9.18;3.92;;;;;;;23.76;38.90;101181.81;4994470;28;20157;-82
2022/04/29 10:30:25;;;;;;;12.52;4.07;;;;;;;23.74;36.78;101183.94;4996479;28;20044;-81
2022/04/29 10:33:06;;;;;;;6.70;3.20;;;;;;;23.88;36.44;101171.19;4996150;28;20057;-81
2022/04/29 10:35:45;;;;;;;7.28;3.92;;;;;;;24.20;36.10;101170.63;4993038;28;20467;-81
2022/04/29 10:38:21;;;;;;;9.93;4.55;;;;;;;24.51;38.22;101165.53;4993458;28;20040;-82
2022/04/29 10:40:50;;;;;;;13.38;7.57;;;;;;;24.09;46.29;101165.66;4992999;28;20502;-82
2022/04/29 10:43:18;;;;;;;13.98;7.95;;;;;;;22.88;50.73;101183.97;4992703;28;20106;-82
2022/04/29 10:46:15;;;;;;;14.77;8.05;;;;;;;22.20;52.88;101176.84;4992667;28;20038;-81
2022/04/29 10:48:43;;;;;;;15.98;8.68;;;;;;;22.04;54.08;101179.75;4993163;28;20026;-82
2022/04/29 10:51:40;;;;;;;15.63;7.20;;;;;;;22.05;54.29;101182.31;4993216;28;20404;-81
2022/04/29 10:54:06;;;;;;;21.52;8.07;;;;;;;21.75;55.15;101179.63;4992521;28;20041;-81
2022/04/29 10:56:31;;;;;;;20.85;7.32;;;;;;;21.78;55.94;101180.13;4992426;28;20034;-81
2022/04/29 10:59:14;;;;;;;19.75;7.82;;;;;;;21.86;55.79;101180.06;4992559;28;20069;-80
2022/04/29 11:01:40;;;;;;;;;;;;;;;21.86;56.02;101181.94;4993521;28;20496;-81
2022/04/29 11:04:07;;;;;;;22.48;8.27;;;;;;;21.84;56.37;101184.00;4992351;28;19913;-82
2022/04/29 11:06:52;;;;;;;18.83;6.07;;;;;;;21.87;55.88;101189.13;4993360;28;20058;-83
2022/04/29 11:09:28;;;;;;;17.73;7.03;;;;;;;21.55;56.79;101184.75;4993103;28;20037;-81
2022/04/29 11:11:55;;;;;;;26.45;7.40;;;;;;;21.65;56.83;101186.22;4992845;28;20493;-82
2022/04/29 11:14:21;;;;;;;23.20;7.13;;;;;;;21.71;56.35;101187.38;5002915;28;20026;-82
2022/04/29 11:16:59;;;;;;;12.10;5.28;;;;;;;21.32;56.86;101159.25;5005164;28;20041;-82
2022/04/29 11:19:28;;;;;;;30.83;7.60;;;;;;;21.19;57.39;101181.75;5004186;28;20094;-82
2022/04/29 11:24:49;;;;;;;26.10;6.72;;;;;;;20.53;59.72;101180.31;4994924;28;20093;-83
2022/04/29 11:27:25;;;;;;;34.10;7.18;;;;;;;20.17;61.40;101181.75;4993938;28;20054;-81
2022/04/29 11:29:53;;;;;;;17.48;5.97;;;;;;;20.26;61.54;101180.72;4998563;28;20022;-82
2022/04/29 11:32:24;;;;;;;23.75;7.88;;;;;;;19.86;62.56;101180.75;4993829;28;20460;-84
2022/04/29 11:34:58;;;;;;;19.73;6.65;;;;;;;19.62;63.69;101192.53;4992752;28;20049;-82
2022/04/29 11:37:35;;;;;;;21.80;5.90;;;;;;;19.50;64.03;101183.81;4992890;28;20045;-82
2022/04/29 11:40:06;;;;;;;19.75;5.93;;;;;;;19.43;64.60;101173.72;4994599;28;20026;-81
2022/04/29 11:42:31;;;;;;;13.57;5.15;;;;;;;19.57;64.56;101175.78;4991598;28;20030;-81
2022/04/29 11:45:08;;;;;;;18.48;5.97;;;;;;;19.87;62.84;101166.09;4992256;28;20030;-80